sensor_id;sensor_type;location;lat;lon;timestamp;temperature;humidity
49319;DHT22;35818;44.498;0.166;2022-09-09T00:02:08;19.00;87.90
49319;DHT22;35818;44.498;0.166;2022-09-09T00:07:35;18.90;88.20
49319;DHT22;35818;44.498;0.166;2022-09-09T00:15:13;18.80;89.10
49319;DHT22;35818;44.498;0.166;2022-09-09T00:17:46;18.70;89.30
49319;DHT22;35818;44.498;0.166;2022-09-09T00:20:19;18.70;89.40
49319;DHT22;35818;44.498;0.166;2022-09-09T00:25:49;18.70;89.20
49319;DHT22;35818;44.498;0.166;2022-09-09T00:28:19;18.80;89.40
49319;DHT22;35818;44.498;0.166;2022-09-09T00:30:46;18.80;89.60
49319;DHT22;35818;44.498;0.166;2022-09-09T00:33:15;18.80;90.00
49319;DHT22;35818;44.498;0.166;2022-09-09T00:35:47;18.80;90.10
49319;DHT22;35818;44.498;0.166;2022-09-09T00:38:27;18.70;90.20
49319;DHT22;35818;44.498;0.166;2022-09-09T00:53:05;18.60;91.10
49319;DHT22;35818;44.498;0.166;2022-09-09T00:58:08;18.60;91.20
49319;DHT22;35818;44.498;0.166;2022-09-09T01:01:37;18.70;91.30
49319;DHT22;35818;44.498;0.166;2022-09-09T01:03:56;18.70;91.20
49319;DHT22;35818;44.498;0.166;2022-09-09T01:09:30;18.80;91.10
49319;DHT22;35818;44.498;0.166;2022-09-09T01:15:24;18.70;91.20
49319;DHT22;35818;44.498;0.166;2022-09-09T01:17:59;18.80;91.30
49319;DHT22;35818;44.498;0.166;2022-09-09T01:28:17;18.80;91.70
49319;DHT22;35818;44.498;0.166;2022-09-09T01:30:51;18.80;91.70
49319;DHT22;35818;44.498;0.166;2022-09-09T01:33:38;18.80;91.70
49319;DHT22;35818;44.498;0.166;2022-09-09T01:38:34;18.80;91.80
49319;DHT22;35818;44.498;0.166;2022-09-09T01:41:25;18.80;91.90
49319;DHT22;35818;44.498;0.166;2022-09-09T01:43:57;18.70;92.00
49319;DHT22;35818;44.498;0.166;2022-09-09T01:46:23;18.70;92.10
49319;DHT22;35818;44.498;0.166;2022-09-09T01:49:02;18.70;92.10
49319;DHT22;35818;44.498;0.166;2022-09-09T01:54:35;18.70;92.30
49319;DHT22;35818;44.498;0.166;2022-09-09T01:59:48;18.70;92.60
49319;DHT22;35818;44.498;0.166;2022-09-09T02:04:41;18.70;92.60
49319;DHT22;35818;44.498;0.166;2022-09-09T02:07:11;18.60;92.60
49319;DHT22;35818;44.498;0.166;2022-09-09T02:09:51;18.70;92.60
49319;DHT22;35818;44.498;0.166;2022-09-09T02:15:18;18.70;92.60
49319;DHT22;35818;44.498;0.166;2022-09-09T02:17:51;18.70;92.50
49319;DHT22;35818;44.498;0.166;2022-09-09T02:20:40;18.80;92.40
49319;DHT22;35818;44.498;0.166;2022-09-09T02:23:37;18.80;92.60
49319;DHT22;35818;44.498;0.166;2022-09-09T02:26:14;18.80;92.30
49319;DHT22;35818;44.498;0.166;2022-09-09T02:29:14;18.70;92.70
49319;DHT22;35818;44.498;0.166;2022-09-09T02:31:53;18.60;92.90
49319;DHT22;35818;44.498;0.166;2022-09-09T02:34:45;18.60;93.20
49319;DHT22;35818;44.498;0.166;2022-09-09T02:37:17;18.50;93.30
49319;DHT22;35818;44.498;0.166;2022-09-09T02:40:19;18.60;93.40
49319;DHT22;35818;44.498;0.166;2022-09-09T02:42:48;18.50;93.50
49319;DHT22;35818;44.498;0.166;2022-09-09T02:45:26;18.50;93.50
49319;DHT22;35818;44.498;0.166;2022-09-09T02:50:33;18.50;93.40
49319;DHT22;35818;44.498;0.166;2022-09-09T02:55:37;18.50;93.80
49319;DHT22;35818;44.498;0.166;2022-09-09T02:58:05;18.40;93.90
49319;DHT22;35818;44.498;0.166;2022-09-09T03:00:32;18.40;94.00
49319;DHT22;35818;44.498;0.166;2022-09-09T03:03:03;18.40;94.20
49319;DHT22;35818;44.498;0.166;2022-09-09T03:05:29;18.30;94.30
49319;DHT22;35818;44.498;0.166;2022-09-09T03:07:57;18.30;94.40
49319;DHT22;35818;44.498;0.166;2022-09-09T03:10:23;18.30;94.50
49319;DHT22;35818;44.498;0.166;2022-09-09T03:12:49;18.30;94.70
49319;DHT22;35818;44.498;0.166;2022-09-09T03:15:33;18.30;94.80
49319;DHT22;35818;44.498;0.166;2022-09-09T03:18:02;18.20;94.80
49319;DHT22;35818;44.498;0.166;2022-09-09T03:20:28;18.20;94.80
49319;DHT22;35818;44.498;0.166;2022-09-09T03:23:15;18.20;94.70
49319;DHT22;35818;44.498;0.166;2022-09-09T03:26:08;18.20;94.90
49319;DHT22;35818;44.498;0.166;2022-09-09T03:28:50;18.20;94.90
49319;DHT22;35818;44.498;0.166;2022-09-09T03:31:44;18.20;94.90
49319;DHT22;35818;44.498;0.166;2022-09-09T03:34:11;18.20;94.90
49319;DHT22;35818;44.498;0.166;2022-09-09T03:36:44;18.20;95.00
49319;DHT22;35818;44.498;0.166;2022-09-09T03:39:12;18.30;95.10
49319;DHT22;35818;44.498;0.166;2022-09-09T03:41:39;18.30;95.00
49319;DHT22;35818;44.498;0.166;2022-09-09T03:44:12;18.30;94.90
49319;DHT22;35818;44.498;0.166;2022-09-09T03:46:40;18.30;94.80
49319;DHT22;35818;44.498;0.166;2022-09-09T03:49:24;18.40;94.80
49319;DHT22;35818;44.498;0.166;2022-09-09T03:51:55;18.40;94.70
49319;DHT22;35818;44.498;0.166;2022-09-09T03:57:10;18.20;94.90
49319;DHT22;35818;44.498;0.166;2022-09-09T03:59:56;18.10;95.10
49319;DHT22;35818;44.498;0.166;2022-09-09T04:02:26;18.00;95.40
49319;DHT22;35818;44.498;0.166;2022-09-09T04:04:52;18.00;95.60
49319;DHT22;35818;44.498;0.166;2022-09-09T04:10:38;18.00;95.70
49319;DHT22;35818;44.498;0.166;2022-09-09T04:13:09;18.00;95.70
49319;DHT22;35818;44.498;0.166;2022-09-09T04:18:35;18.10;95.70
49319;DHT22;35818;44.498;0.166;2022-09-09T04:21:01;18.10;96.10
49319;DHT22;35818;44.498;0.166;2022-09-09T04:23:28;18.20;96.40
49319;DHT22;35818;44.498;0.166;2022-09-09T04:25:59;18.10;96.80
49319;DHT22;35818;44.498;0.166;2022-09-09T04:28:35;18.20;97.10
49319;DHT22;35818;44.498;0.166;2022-09-09T04:31:15;18.20;97.20
49319;DHT22;35818;44.498;0.166;2022-09-09T04:33:41;18.10;97.30
49319;DHT22;35818;44.498;0.166;2022-09-09T04:36:07;18.10;97.70
49319;DHT22;35818;44.498;0.166;2022-09-09T04:38:33;18.10;97.80
49319;DHT22;35818;44.498;0.166;2022-09-09T04:40:59;18.10;97.90
49319;DHT22;35818;44.498;0.166;2022-09-09T04:43:24;18.10;97.90
49319;DHT22;35818;44.498;0.166;2022-09-09T04:45:52;18.10;97.80
49319;DHT22;35818;44.498;0.166;2022-09-09T04:48:18;18.10;98.00
49319;DHT22;35818;44.498;0.166;2022-09-09T04:50:43;18.10;98.20
49319;DHT22;35818;44.498;0.166;2022-09-09T04:53:09;18.10;98.20
49319;DHT22;35818;44.498;0.166;2022-09-09T04:55:35;18.10;98.20
49319;DHT22;35818;44.498;0.166;2022-09-09T04:58:04;18.10;98.30
49319;DHT22;35818;44.498;0.166;2022-09-09T05:00:32;18.10;98.30
49319;DHT22;35818;44.498;0.166;2022-09-09T05:03:19;18.10;98.20
49319;DHT22;35818;44.498;0.166;2022-09-09T05:06:25;18.10;98.00
49319;DHT22;35818;44.498;0.166;2022-09-09T06:58:44;19.30;93.60
49319;DHT22;35818;44.498;0.166;2022-09-09T07:01:11;19.40;93.50
49319;DHT22;35818;44.498;0.166;2022-09-09T07:03:40;19.50;93.30
49319;DHT22;35818;44.498;0.166;2022-09-09T07:06:09;19.60;93.10
49319;DHT22;35818;44.498;0.166;2022-09-09T07:08:39;19.70;92.90
49319;DHT22;35818;44.498;0.166;2022-09-09T07:11:15;19.70;92.70
49319;DHT22;35818;44.498;0.166;2022-09-09T07:13:43;19.80;92.60
49319;DHT22;35818;44.498;0.166;2022-09-09T07:16:09;19.70;92.40
49319;DHT22;35818;44.498;0.166;2022-09-09T07:18:36;19.60;92.50
49319;DHT22;35818;44.498;0.166;2022-09-09T07:21:02;19.60;92.60
49319;DHT22;35818;44.498;0.166;2022-09-09T07:23:28;19.50;92.70
49319;DHT22;35818;44.498;0.166;2022-09-09T07:25:55;19.40;93.00
49319;DHT22;35818;44.498;0.166;2022-09-09T07:28:20;19.40;93.30
49319;DHT22;35818;44.498;0.166;2022-09-09T07:30:59;19.50;93.60
49319;DHT22;35818;44.498;0.166;2022-09-09T07:33:26;19.50;93.20
49319;DHT22;35818;44.498;0.166;2022-09-09T07:36:02;19.60;92.90
49319;DHT22;35818;44.498;0.166;2022-09-09T07:38:28;19.60;92.90
49319;DHT22;35818;44.498;0.166;2022-09-09T07:41:02;19.70;92.80
49319;DHT22;35818;44.498;0.166;2022-09-09T07:43:27;19.90;92.40
49319;DHT22;35818;44.498;0.166;2022-09-09T07:45:59;20.00;91.90
49319;DHT22;35818;44.498;0.166;2022-09-09T07:48:27;20.20;91.40
49319;DHT22;35818;44.498;0.166;2022-09-09T07:50:52;20.50;90.80
49319;DHT22;35818;44.498;0.166;2022-09-09T07:53:18;20.80;90.30
49319;DHT22;35818;44.498;0.166;2022-09-09T07:55:46;21.00;89.40
49319;DHT22;35818;44.498;0.166;2022-09-09T07:58:12;21.10;88.00
49319;DHT22;35818;44.498;0.166;2022-09-09T08:00:37;21.10;87.50
49319;DHT22;35818;44.498;0.166;2022-09-09T08:03:04;21.00;87.30
49319;DHT22;35818;44.498;0.166;2022-09-09T08:05:34;20.90;87.30
49319;DHT22;35818;44.498;0.166;2022-09-09T08:07:59;21.00;87.60
49319;DHT22;35818;44.498;0.166;2022-09-09T08:10:25;21.10;87.50
49319;DHT22;35818;44.498;0.166;2022-09-09T08:12:51;21.30;86.40
49319;DHT22;35818;44.498;0.166;2022-09-09T08:15:17;21.60;84.40
49319;DHT22;35818;44.498;0.166;2022-09-09T08:17:43;21.90;83.00
49319;DHT22;35818;44.498;0.166;2022-09-09T08:20:09;22.20;81.60
49319;DHT22;35818;44.498;0.166;2022-09-09T08:22:36;22.50;80.20
49319;DHT22;35818;44.498;0.166;2022-09-09T08:25:03;22.80;79.20
49319;DHT22;35818;44.498;0.166;2022-09-09T08:27:31;23.20;77.80
49319;DHT22;35818;44.498;0.166;2022-09-09T08:29:58;23.30;76.70
49319;DHT22;35818;44.498;0.166;2022-09-09T08:32:24;23.40;75.50
49319;DHT22;35818;44.498;0.166;2022-09-09T08:34:49;23.30;75.10
49319;DHT22;35818;44.498;0.166;2022-09-09T08:37:16;23.10;73.90
49319;DHT22;35818;44.498;0.166;2022-09-09T08:39:42;22.80;73.30
49319;DHT22;35818;44.498;0.166;2022-09-09T08:47:03;22.30;72.60
49319;DHT22;35818;44.498;0.166;2022-09-09T08:52:18;22.30;72.50
49319;DHT22;35818;44.498;0.166;2022-09-09T08:54:44;22.40;71.80
49319;DHT22;35818;44.498;0.166;2022-09-09T08:57:13;22.50;71.30
49319;DHT22;35818;44.498;0.166;2022-09-09T08:59:39;22.70;70.10
49319;DHT22;35818;44.498;0.166;2022-09-09T09:02:17;22.80;70.40
49319;DHT22;35818;44.498;0.166;2022-09-09T09:12:35;23.70;64.70
49319;DHT22;35818;44.498;0.166;2022-09-09T09:15:02;23.80;64.50
49319;DHT22;35818;44.498;0.166;2022-09-09T09:17:28;24.00;61.50
49319;DHT22;35818;44.498;0.166;2022-09-09T09:19:56;24.00;61.30
49319;DHT22;35818;44.498;0.166;2022-09-09T09:22:23;24.10;61.30
49319;DHT22;35818;44.498;0.166;2022-09-09T09:27:29;24.30;60.00
49319;DHT22;35818;44.498;0.166;2022-09-09T09:29:56;24.70;60.00
49319;DHT22;35818;44.498;0.166;2022-09-09T09:32:23;25.10;57.70
49319;DHT22;35818;44.498;0.166;2022-09-09T09:34:51;25.10;56.90
49319;DHT22;35818;44.498;0.166;2022-09-09T09:37:26;25.10;56.20
49319;DHT22;35818;44.498;0.166;2022-09-09T09:39:53;25.00;56.60
49319;DHT22;35818;44.498;0.166;2022-09-09T09:42:19;24.90;57.40
49319;DHT22;35818;44.498;0.166;2022-09-09T09:44:45;25.50;57.00
49319;DHT22;35818;44.498;0.166;2022-09-09T09:47:12;26.50;54.10
49319;DHT22;35818;44.498;0.166;2022-09-09T09:49:38;27.50;51.70
49319;DHT22;35818;44.498;0.166;2022-09-09T09:52:05;28.40;49.80
49319;DHT22;35818;44.498;0.166;2022-09-09T09:54:32;29.30;47.70
49319;DHT22;35818;44.498;0.166;2022-09-09T09:57:12;29.40;46.30
49319;DHT22;35818;44.498;0.166;2022-09-09T09:59:38;29.90;46.40
49319;DHT22;35818;44.498;0.166;2022-09-09T10:02:21;30.40;45.20
49319;DHT22;35818;44.498;0.166;2022-09-09T10:04:59;30.50;45.10
49319;DHT22;35818;44.498;0.166;2022-09-09T10:07:26;31.30;44.20
49319;DHT22;35818;44.498;0.166;2022-09-09T10:09:53;32.00;41.00
49319;DHT22;35818;44.498;0.166;2022-09-09T10:15:15;30.40;42.40
49319;DHT22;35818;44.498;0.166;2022-09-09T10:17:40;29.60;43.80
49319;DHT22;35818;44.498;0.166;2022-09-09T10:20:17;30.00;43.60
49319;DHT22;35818;44.498;0.166;2022-09-09T10:22:47;31.20;42.00
49319;DHT22;35818;44.498;0.166;2022-09-09T10:25:18;32.40;39.80
49319;DHT22;35818;44.498;0.166;2022-09-09T10:33:22;31.60;39.10
49319;DHT22;35818;44.498;0.166;2022-09-09T10:38:45;31.30;40.40
49319;DHT22;35818;44.498;0.166;2022-09-09T10:41:24;31.40;40.10
49319;DHT22;35818;44.498;0.166;2022-09-09T10:49:20;28.90;43.60
49319;DHT22;35818;44.498;0.166;2022-09-09T10:54:22;27.00;48.90
49319;DHT22;35818;44.498;0.166;2022-09-09T10:56:52;26.50;50.50
49319;DHT22;35818;44.498;0.166;2022-09-09T10:59:33;26.20;51.40
49319;DHT22;35818;44.498;0.166;2022-09-09T11:04:40;27.30;51.80
49319;DHT22;35818;44.498;0.166;2022-09-09T11:07:08;29.50;48.30
49319;DHT22;35818;44.498;0.166;2022-09-09T11:09:36;31.80;44.50
49319;DHT22;35818;44.498;0.166;2022-09-09T11:12:06;33.40;40.60
49319;DHT22;35818;44.498;0.166;2022-09-09T11:14:36;34.80;39.30
49319;DHT22;35818;44.498;0.166;2022-09-09T11:17:22;36.00;37.00
49319;DHT22;35818;44.498;0.166;2022-09-09T11:19:48;36.90;36.30
49319;DHT22;35818;44.498;0.166;2022-09-09T11:28:07;34.40;36.40
49319;DHT22;35818;44.498;0.166;2022-09-09T11:33:20;34.70;33.70
49319;DHT22;35818;44.498;0.166;2022-09-09T11:38:32;36.40;31.20
49319;DHT22;35818;44.498;0.166;2022-09-09T11:41:01;37.10;30.60
49319;DHT22;35818;44.498;0.166;2022-09-09T11:46:44;38.30;29.60
49319;DHT22;35818;44.498;0.166;2022-09-09T11:52:11;36.00;30.20
49319;DHT22;35818;44.498;0.166;2022-09-09T11:54:47;33.80;32.40
49319;DHT22;35818;44.498;0.166;2022-09-09T11:57:31;32.10;34.70
49319;DHT22;35818;44.498;0.166;2022-09-09T13:37:47;31.70;37.30
49319;DHT22;35818;44.498;0.166;2022-09-09T13:40:17;30.90;38.70
49319;DHT22;35818;44.498;0.166;2022-09-09T13:42:46;31.20;39.00
49319;DHT22;35818;44.498;0.166;2022-09-09T13:45:17;33.10;37.50
49319;DHT22;35818;44.498;0.166;2022-09-09T13:47:45;34.90;35.90
49319;DHT22;35818;44.498;0.166;2022-09-09T13:52:45;34.50;34.20
49319;DHT22;35818;44.498;0.166;2022-09-09T13:55:11;34.50;34.80
49319;DHT22;35818;44.498;0.166;2022-09-09T13:57:36;35.50;34.40
49319;DHT22;35818;44.498;0.166;2022-09-09T14:00:02;37.10;33.40
49319;DHT22;35818;44.498;0.166;2022-09-09T14:02:28;38.30;31.70
49319;DHT22;35818;44.498;0.166;2022-09-09T14:04:53;37.50;31.30
49319;DHT22;35818;44.498;0.166;2022-09-09T14:07:20;35.80;32.30
49319;DHT22;35818;44.498;0.166;2022-09-09T14:09:50;35.30;33.40
49319;DHT22;35818;44.498;0.166;2022-09-09T14:12:18;36.30;32.90
49319;DHT22;35818;44.498;0.166;2022-09-09T14:14:44;36.30;31.80
49319;DHT22;35818;44.498;0.166;2022-09-09T14:17:15;35.20;31.80
49319;DHT22;35818;44.498;0.166;2022-09-09T14:29:26;30.10;37.10
49319;DHT22;35818;44.498;0.166;2022-09-09T14:31:57;31.30;37.00
49319;DHT22;35818;44.498;0.166;2022-09-09T14:52:19;32.40;34.60
49319;DHT22;35818;44.498;0.166;2022-09-09T14:55:00;32.20;35.10
49319;DHT22;35818;44.498;0.166;2022-09-09T14:57:34;31.90;35.60
49319;DHT22;35818;44.498;0.166;2022-09-09T15:00:35;32.90;35.40
49319;DHT22;35818;44.498;0.166;2022-09-09T15:03:35;33.90;34.50
49319;DHT22;35818;44.498;0.166;2022-09-09T15:06:31;35.70;32.90
49319;DHT22;35818;44.498;0.166;2022-09-09T15:25:33;33.20;34.20
49319;DHT22;35818;44.498;0.166;2022-09-09T15:28:06;32.10;34.90
49319;DHT22;35818;44.498;0.166;2022-09-09T15:30:38;30.90;36.40
49319;DHT22;35818;44.498;0.166;2022-09-09T15:33:07;30.20;37.50
49319;DHT22;35818;44.498;0.166;2022-09-09T15:35:33;30.60;38.00
49319;DHT22;35818;44.498;0.166;2022-09-09T15:38:09;32.20;36.70
49319;DHT22;35818;44.498;0.166;2022-09-09T15:47:21;35.00;32.50
49319;DHT22;35818;44.498;0.166;2022-09-09T15:49:47;33.10;33.70
49319;DHT22;35818;44.498;0.166;2022-09-09T15:52:13;31.80;35.30
49319;DHT22;35818;44.498;0.166;2022-09-09T15:54:39;32.00;36.10
49319;DHT22;35818;44.498;0.166;2022-09-09T16:00:17;34.40;33.90
49319;DHT22;35818;44.498;0.166;2022-09-09T16:03:21;35.10;33.00
49319;DHT22;35818;44.498;0.166;2022-09-09T16:09:45;35.80;32.30
49319;DHT22;35818;44.498;0.166;2022-09-09T16:15:58;35.50;32.30
49319;DHT22;35818;44.498;0.166;2022-09-09T16:18:47;33.50;33.80
49319;DHT22;35818;44.498;0.166;2022-09-09T16:21:32;31.90;35.70
49319;DHT22;35818;44.498;0.166;2022-09-09T16:24:02;30.70;37.20
49319;DHT22;35818;44.498;0.166;2022-09-09T16:26:31;30.30;38.30
49319;DHT22;35818;44.498;0.166;2022-09-09T16:28:58;30.20;38.50
49319;DHT22;35818;44.498;0.166;2022-09-09T16:31:31;30.90;37.90
49319;DHT22;35818;44.498;0.166;2022-09-09T16:34:00;31.30;37.00
49319;DHT22;35818;44.498;0.166;2022-09-09T16:36:28;30.90;37.20
49319;DHT22;35818;44.498;0.166;2022-09-09T16:39:04;30.20;38.00
49319;DHT22;35818;44.498;0.166;2022-09-09T16:41:35;29.90;38.60
49319;DHT22;35818;44.498;0.166;2022-09-09T16:44:03;30.30;38.40
49319;DHT22;35818;44.498;0.166;2022-09-09T16:46:29;30.30;37.90
49319;DHT22;35818;44.498;0.166;2022-09-09T16:48:56;29.70;38.10
49319;DHT22;35818;44.498;0.166;2022-09-09T16:51:23;29.00;39.10
49319;DHT22;35818;44.498;0.166;2022-09-09T16:54:00;28.30;40.20
49319;DHT22;35818;44.498;0.166;2022-09-09T16:56:30;27.60;41.40
49319;DHT22;35818;44.498;0.166;2022-09-09T16:59:02;27.30;42.40
49319;DHT22;35818;44.498;0.166;2022-09-09T17:01:29;27.80;42.00
49319;DHT22;35818;44.498;0.166;2022-09-09T17:04:03;28.50;41.20
49319;DHT22;35818;44.498;0.166;2022-09-09T17:06:32;29.20;40.40
49319;DHT22;35818;44.498;0.166;2022-09-09T17:09:12;29.60;39.30
49319;DHT22;35818;44.498;0.166;2022-09-09T17:11:38;29.90;38.80
49319;DHT22;35818;44.498;0.166;2022-09-09T17:14:18;30.10;38.60
49319;DHT22;35818;44.498;0.166;2022-09-09T17:16:45;30.10;38.60
49319;DHT22;35818;44.498;0.166;2022-09-09T17:19:11;30.00;38.60
49319;DHT22;35818;44.498;0.166;2022-09-09T17:21:38;29.70;38.70
49319;DHT22;35818;44.498;0.166;2022-09-09T17:24:06;29.50;39.30
49319;DHT22;35818;44.498;0.166;2022-09-09T17:26:59;29.10;40.00
49319;DHT22;35818;44.498;0.166;2022-09-09T17:29:35;28.40;40.90
49319;DHT22;35818;44.498;0.166;2022-09-09T17:32:03;27.40;42.30
49319;DHT22;35818;44.498;0.166;2022-09-09T17:34:37;26.60;43.60
49319;DHT22;35818;44.498;0.166;2022-09-09T17:37:05;26.00;44.50
49319;DHT22;35818;44.498;0.166;2022-09-09T17:39:33;25.40;45.40
49319;DHT22;35818;44.498;0.166;2022-09-09T17:41:59;25.10;46.00
49319;DHT22;35818;44.498;0.166;2022-09-09T17:44:27;24.80;46.60
49319;DHT22;35818;44.498;0.166;2022-09-09T17:46:56;24.50;47.40
49319;DHT22;35818;44.498;0.166;2022-09-09T17:49:23;24.30;48.00
49319;DHT22;35818;44.498;0.166;2022-09-09T17:51:49;24.10;48.40
49319;DHT22;35818;44.498;0.166;2022-09-09T17:54:19;23.90;48.80
49319;DHT22;35818;44.498;0.166;2022-09-09T17:57:03;23.70;49.10
49319;DHT22;35818;44.498;0.166;2022-09-09T17:59:31;23.60;49.80
49319;DHT22;35818;44.498;0.166;2022-09-09T18:01:57;23.40;49.90
49319;DHT22;35818;44.498;0.166;2022-09-09T18:04:47;23.30;50.00
49319;DHT22;35818;44.498;0.166;2022-09-09T18:07:20;23.00;50.20
49319;DHT22;35818;44.498;0.166;2022-09-09T18:09:54;22.90;50.50
49319;DHT22;35818;44.498;0.166;2022-09-09T18:12:26;22.80;51.20
49319;DHT22;35818;44.498;0.166;2022-09-09T18:15:26;22.60;51.70
49319;DHT22;35818;44.498;0.166;2022-09-09T18:18:17;22.50;52.40
49319;DHT22;35818;44.498;0.166;2022-09-09T18:20:58;22.30;52.80
49319;DHT22;35818;44.498;0.166;2022-09-09T18:23:34;22.20;53.20
49319;DHT22;35818;44.498;0.166;2022-09-09T18:26:24;22.10;53.60
49319;DHT22;35818;44.498;0.166;2022-09-09T18:29:33;21.90;54.20
49319;DHT22;35818;44.498;0.166;2022-09-09T18:32:20;21.90;54.70
49319;DHT22;35818;44.498;0.166;2022-09-09T18:35:18;21.80;55.40
49319;DHT22;35818;44.498;0.166;2022-09-09T18:38:10;21.70;55.70
49319;DHT22;35818;44.498;0.166;2022-09-09T18:41:23;21.60;55.90
49319;DHT22;35818;44.498;0.166;2022-09-09T18:47:03;21.50;56.80
49319;DHT22;35818;44.498;0.166;2022-09-09T18:50:07;21.40;57.20
49319;DHT22;35818;44.498;0.166;2022-09-09T18:53:08;21.30;57.80
49319;DHT22;35818;44.498;0.166;2022-09-09T18:56:03;21.30;58.40
49319;DHT22;35818;44.498;0.166;2022-09-09T18:59:20;21.20;58.90
49319;DHT22;35818;44.498;0.166;2022-09-09T19:02:15;21.00;59.40
49319;DHT22;35818;44.498;0.166;2022-09-09T19:05:13;21.00;59.80
49319;DHT22;35818;44.498;0.166;2022-09-09T19:08:18;20.90;60.20
49319;DHT22;35818;44.498;0.166;2022-09-09T19:14:04;20.60;60.80
49319;DHT22;35818;44.498;0.166;2022-09-09T19:19:57;20.50;62.30
49319;DHT22;35818;44.498;0.166;2022-09-09T19:22:50;20.40;62.50
49319;DHT22;35818;44.498;0.166;2022-09-09T19:28:45;20.30;62.90
49319;DHT22;35818;44.498;0.166;2022-09-09T19:31:54;20.20;63.30
49319;DHT22;35818;44.498;0.166;2022-09-09T19:34:51;20.20;63.70
49319;DHT22;35818;44.498;0.166;2022-09-09T19:37:37;20.10;64.20
49319;DHT22;35818;44.498;0.166;2022-09-09T19:43:14;20.00;64.80
49319;DHT22;35818;44.498;0.166;2022-09-09T19:46:17;19.90;65.10
49319;DHT22;35818;44.498;0.166;2022-09-09T19:49:29;19.80;65.40
49319;DHT22;35818;44.498;0.166;2022-09-09T19:51:58;19.70;65.80
49319;DHT22;35818;44.498;0.166;2022-09-09T19:55:06;19.70;65.90
49319;DHT22;35818;44.498;0.166;2022-09-09T19:58:12;19.60;66.00
49319;DHT22;35818;44.498;0.166;2022-09-09T20:07:12;19.40;67.00
49319;DHT22;35818;44.498;0.166;2022-09-09T20:09:53;19.30;67.30
49319;DHT22;35818;44.498;0.166;2022-09-09T20:15:38;19.20;67.70
49319;DHT22;35818;44.498;0.166;2022-09-09T20:18:47;19.20;68.00
49319;DHT22;35818;44.498;0.166;2022-09-09T20:21:43;19.10;68.20
49319;DHT22;35818;44.498;0.166;2022-09-09T20:24:40;19.10;68.60
49319;DHT22;35818;44.498;0.166;2022-09-09T20:27:29;19.00;68.80
49319;DHT22;35818;44.498;0.166;2022-09-09T20:30:18;19.00;69.10
49319;DHT22;35818;44.498;0.166;2022-09-09T20:33:01;18.90;69.10
49319;DHT22;35818;44.498;0.166;2022-09-09T20:35:48;18.90;69.40
49319;DHT22;35818;44.498;0.166;2022-09-09T20:38:42;18.80;69.80
49319;DHT22;35818;44.498;0.166;2022-09-09T20:44:24;18.70;70.30
49319;DHT22;35818;44.498;0.166;2022-09-09T20:47:36;18.70;71.20
49319;DHT22;35818;44.498;0.166;2022-09-09T20:50:48;18.70;70.90
49319;DHT22;35818;44.498;0.166;2022-09-09T20:53:34;18.60;71.10
49319;DHT22;35818;44.498;0.166;2022-09-09T20:59:24;18.50;71.80
49319;DHT22;35818;44.498;0.166;2022-09-09T21:15:03;18.20;72.90
49319;DHT22;35818;44.498;0.166;2022-09-09T21:17:57;18.20;73.30
49319;DHT22;35818;44.498;0.166;2022-09-09T21:21:05;18.10;73.50
49319;DHT22;35818;44.498;0.166;2022-09-09T21:23:57;18.10;73.90
49319;DHT22;35818;44.498;0.166;2022-09-09T22:02:51;17.70;76.70
49319;DHT22;35818;44.498;0.166;2022-09-09T22:06:21;17.60;77.10
49319;DHT22;35818;44.498;0.166;2022-09-09T22:09:39;17.60;77.50
49319;DHT22;35818;44.498;0.166;2022-09-09T22:12:40;17.50;77.90
49319;DHT22;35818;44.498;0.166;2022-09-09T22:19:18;17.40;78.30
49319;DHT22;35818;44.498;0.166;2022-09-09T22:22:28;17.40;79.00
49319;DHT22;35818;44.498;0.166;2022-09-09T22:28:43;17.30;79.80
49319;DHT22;35818;44.498;0.166;2022-09-09T22:32:02;17.30;80.20
49319;DHT22;35818;44.498;0.166;2022-09-09T22:35:13;17.30;80.70
49319;DHT22;35818;44.498;0.166;2022-09-09T22:41:33;17.20;81.70
49319;DHT22;35818;44.498;0.166;2022-09-09T22:44:31;17.20;82.00
49319;DHT22;35818;44.498;0.166;2022-09-09T22:50:40;17.10;82.20
49319;DHT22;35818;44.498;0.166;2022-09-09T22:54:03;17.00;82.50
49319;DHT22;35818;44.498;0.166;2022-09-09T22:57:04;17.00;83.10
49319;DHT22;35818;44.498;0.166;2022-09-09T23:06:49;17.00;83.10
49319;DHT22;35818;44.498;0.166;2022-09-09T23:10:08;17.00;83.10
49319;DHT22;35818;44.498;0.166;2022-09-09T23:13:09;17.00;83.30
49319;DHT22;35818;44.498;0.166;2022-09-09T23:16:16;16.90;83.20
49319;DHT22;35818;44.498;0.166;2022-09-09T23:22:23;16.90;83.80
49319;DHT22;35818;44.498;0.166;2022-09-09T23:25:44;16.80;84.10
49319;DHT22;35818;44.498;0.166;2022-09-09T23:32:03;16.70;85.50
49319;DHT22;35818;44.498;0.166;2022-09-09T23:38:17;16.50;85.80
49319;DHT22;35818;44.498;0.166;2022-09-09T23:41:31;16.40;85.90
49319;DHT22;35818;44.498;0.166;2022-09-09T23:53:46;16.20;87.00
49319;DHT22;35818;44.498;0.166;2022-09-09T23:57:04;16.10;87.30
49319;DHT22;35818;44.498;0.166;2022-09-09T23:59:55;16.00;87.90
